createdAt,value
2019-03-20T00:00:26.458Z,0.00
2019-03-20T00:01:26.426Z,0.00
2019-03-20T00:02:26.444Z,0.00
2019-03-20T00:03:26.409Z,0.00
2019-03-20T00:04:26.396Z,0.00
2019-03-20T00:05:26.389Z,0.00
2019-03-20T00:06:26.718Z,0.00
2019-03-20T00:07:26.380Z,0.00
2019-03-20T00:08:26.353Z,0.00
2019-03-20T00:09:26.381Z,0.00
2019-03-20T00:10:26.360Z,0.00
2019-03-20T00:11:26.322Z,0.00
2019-03-20T00:12:26.342Z,0.00
2019-03-20T00:13:26.329Z,0.00
2019-03-20T00:14:26.296Z,0.00
2019-03-20T00:15:26.295Z,0.00
2019-03-20T00:16:26.273Z,0.00
2019-03-20T00:17:26.288Z,0.00
2019-03-20T00:18:26.272Z,0.00
2019-03-20T00:19:26.239Z,0.00
2019-03-20T00:20:26.278Z,0.00
2019-03-20T00:21:26.230Z,0.00
2019-03-20T00:22:26.210Z,0.00
2019-03-20T00:23:26.228Z,0.00
2019-03-20T00:24:26.185Z,0.00
2019-03-20T00:25:26.172Z,0.00
2019-03-20T00:26:26.179Z,0.00
2019-03-20T00:27:26.162Z,0.00
2019-03-20T00:28:26.162Z,0.00
2019-03-20T00:29:26.135Z,0.00
2019-03-20T00:30:26.123Z,0.00
2019-03-20T00:31:26.112Z,0.00
2019-03-20T00:32:26.126Z,0.00
2019-03-20T00:33:26.088Z,0.00
2019-03-20T00:34:26.111Z,0.00
2019-03-20T00:35:26.078Z,0.00
2019-03-20T00:36:26.060Z,0.00
2019-03-20T00:37:26.080Z,0.00
2019-03-20T00:38:26.063Z,0.00
2019-03-20T00:39:26.030Z,0.00
2019-03-20T00:40:26.034Z,0.00
2019-03-20T00:41:26.004Z,0.00
2019-03-20T00:42:25.994Z,0.00
2019-03-20T00:43:25.990Z,0.00
2019-03-20T00:44:25.993Z,0.00
2019-03-20T00:45:25.962Z,0.00
2019-03-20T00:46:25.976Z,0.00
2019-03-20T00:47:25.946Z,0.00
2019-03-20T00:48:25.931Z,0.00
2019-03-20T00:49:25.925Z,0.00
2019-03-20T00:50:25.931Z,0.00
2019-03-20T00:51:25.903Z,0.00
2019-03-20T00:52:25.908Z,0.00
2019-03-20T00:53:25.885Z,0.00
2019-03-20T00:54:25.879Z,0.00
2019-03-20T00:55:25.861Z,0.00
2019-03-20T00:56:25.872Z,0.00
2019-03-20T00:57:25.846Z,0.00
2019-03-20T00:58:25.839Z,0.00
2019-03-20T00:59:25.815Z,0.00
2019-03-20T01:00:25.844Z,0.00
2019-03-20T01:01:25.799Z,0.00
2019-03-20T01:02:25.803Z,0.00
2019-03-20T01:03:25.776Z,0.00
2019-03-20T01:04:25.797Z,0.00
2019-03-20T01:05:25.754Z,0.00
2019-03-20T01:06:25.744Z,0.00
2019-03-20T01:07:25.739Z,0.00
2019-03-20T01:08:25.747Z,0.00
2019-03-20T01:09:25.766Z,0.00
2019-03-20T01:10:25.724Z,0.00
2019-03-20T01:11:25.690Z,0.00
2019-03-20T01:12:25.682Z,0.00
2019-03-20T01:13:25.672Z,0.00
2019-03-20T01:14:25.674Z,0.00
2019-03-20T01:15:25.652Z,0.00
2019-03-20T01:16:25.677Z,0.00
2019-03-20T01:17:25.630Z,0.00
2019-03-20T01:18:25.618Z,0.00
2019-03-20T01:19:25.641Z,0.00
2019-03-20T01:20:25.605Z,0.00
2019-03-20T01:21:25.602Z,0.00
2019-03-20T01:22:25.595Z,0.00
2019-03-20T01:23:25.591Z,0.00
2019-03-20T01:24:25.566Z,0.00
2019-03-20T01:25:25.550Z,0.00
2019-03-20T01:26:25.554Z,0.00
2019-03-20T01:27:25.523Z,0.00
2019-03-20T01:28:25.526Z,0.00
2019-03-20T01:29:25.519Z,0.00
2019-03-20T01:30:25.714Z,0.00
2019-03-20T01:31:25.503Z,0.00
2019-03-20T01:32:25.472Z,0.00
2019-03-20T01:33:25.463Z,0.00
2019-03-20T01:34:25.452Z,0.00
2019-03-20T01:35:25.455Z,0.00
2019-03-20T01:36:25.471Z,0.00
2019-03-20T01:37:25.419Z,0.00
2019-03-20T01:38:25.413Z,0.00
2019-03-20T01:39:25.430Z,0.00
2019-03-20T01:40:25.393Z,0.00
2019-03-20T01:41:25.401Z,0.00
2019-03-20T01:42:25.383Z,0.00
2019-03-20T01:43:25.363Z,0.00
2019-03-20T01:44:25.350Z,0.00
2019-03-20T01:45:25.338Z,0.00
2019-03-20T01:46:25.366Z,0.00
2019-03-20T01:47:25.316Z,0.00
2019-03-20T01:48:25.327Z,0.00
2019-03-20T01:49:25.336Z,0.00
2019-03-20T01:50:25.287Z,0.00
2019-03-20T01:51:25.289Z,0.00
2019-03-20T01:52:25.263Z,0.00
2019-03-20T01:53:25.254Z,0.00
2019-03-20T01:54:25.244Z,0.00
2019-03-20T01:55:25.268Z,0.00
2019-03-20T01:56:25.238Z,0.00
2019-03-20T01:57:25.216Z,0.00
2019-03-20T01:58:25.200Z,0.00
2019-03-20T01:59:25.190Z,0.00
2019-03-20T02:00:25.184Z,0.00
2019-03-20T02:01:25.291Z,0.00
2019-03-20T02:02:25.196Z,0.00
2019-03-20T02:03:25.168Z,0.00
2019-03-20T02:04:25.148Z,0.00
2019-03-20T02:05:35.096Z,0.00
2019-03-20T02:06:26.166Z,0.00
2019-03-20T02:07:25.134Z,0.00
2019-03-20T02:08:25.097Z,0.00
2019-03-20T02:09:25.084Z,0.00
2019-03-20T02:10:25.103Z,0.00
2019-03-20T02:11:25.099Z,0.00
2019-03-20T02:12:25.073Z,0.00
2019-03-20T02:13:25.047Z,0.00
2019-03-20T02:14:25.036Z,0.00
2019-03-20T02:15:25.047Z,0.00
2019-03-20T02:16:25.035Z,0.00
2019-03-20T02:17:25.004Z,0.00
2019-03-20T02:18:24.990Z,0.00
2019-03-20T02:19:24.982Z,0.00
2019-03-20T02:20:24.974Z,0.00
2019-03-20T02:21:24.983Z,0.00
2019-03-20T02:22:24.974Z,0.00
2019-03-20T02:23:24.952Z,0.00
2019-03-20T02:24:24.928Z,0.00
2019-03-20T02:25:24.924Z,0.00
2019-03-20T02:26:24.966Z,0.00
2019-03-20T02:27:24.930Z,0.00
2019-03-20T02:28:24.892Z,0.00
2019-03-20T02:29:24.881Z,0.00
2019-03-20T02:30:24.880Z,0.00
2019-03-20T02:31:24.855Z,0.00
2019-03-20T02:32:24.871Z,0.00
2019-03-20T02:33:24.863Z,0.00
2019-03-20T02:34:24.826Z,0.00
2019-03-20T02:35:24.825Z,0.00
2019-03-20T02:36:24.806Z,0.00
2019-03-20T02:37:24.799Z,0.00
2019-03-20T02:38:24.824Z,0.00
2019-03-20T02:39:24.798Z,0.00
2019-03-20T02:40:24.781Z,0.00
2019-03-20T02:41:24.751Z,0.00
2019-03-20T02:42:24.769Z,0.00
2019-03-20T02:43:24.739Z,0.00
2019-03-20T02:44:24.725Z,0.00
2019-03-20T02:45:24.735Z,0.00
2019-03-20T02:46:24.702Z,0.00
2019-03-20T02:47:24.706Z,0.00
2019-03-20T02:48:24.685Z,0.00
2019-03-20T02:49:24.669Z,0.00
2019-03-20T02:50:24.657Z,0.00
2019-03-20T02:51:24.770Z,0.00
2019-03-20T02:52:24.654Z,0.00
2019-03-20T02:53:24.626Z,0.00
2019-03-20T02:54:24.616Z,0.00
2019-03-20T02:55:24.819Z,0.00
2019-03-20T02:56:24.605Z,0.00
2019-03-20T02:57:24.645Z,0.00
2019-03-20T02:58:24.602Z,0.00
2019-03-20T02:59:24.566Z,0.00
2019-03-20T03:00:24.555Z,0.00
2019-03-20T03:01:24.543Z,0.00
2019-03-20T03:02:24.539Z,0.00
2019-03-20T03:03:24.543Z,0.00
2019-03-20T03:04:24.532Z,0.00
2019-03-20T03:05:24.531Z,0.00
2019-03-20T03:06:24.520Z,0.00
2019-03-20T03:07:24.501Z,0.00
2019-03-20T03:08:24.476Z,0.00
2019-03-20T03:09:24.479Z,0.00
2019-03-20T03:10:24.447Z,0.00
2019-03-20T03:11:24.440Z,0.00
2019-03-20T03:12:24.451Z,0.00
2019-03-20T03:13:24.437Z,0.00
2019-03-20T03:14:24.414Z,0.00
2019-03-20T03:15:24.410Z,0.00
2019-03-20T03:16:24.618Z,0.00
2019-03-20T03:17:24.413Z,0.00
2019-03-20T03:18:24.373Z,0.00
2019-03-20T03:19:24.361Z,0.00
2019-03-20T03:20:24.345Z,0.00
2019-03-20T03:21:24.336Z,0.00
2019-03-20T03:22:24.344Z,0.00
2019-03-20T03:23:24.405Z,0.00
2019-03-20T03:24:24.315Z,0.00
2019-03-20T03:25:24.299Z,0.00
2019-03-20T03:26:24.284Z,0.00
2019-03-20T03:27:24.279Z,0.00
2019-03-20T03:28:24.280Z,0.00
2019-03-20T03:29:24.275Z,0.00
2019-03-20T03:30:24.262Z,0.00
2019-03-20T03:31:24.229Z,0.00
2019-03-20T03:32:24.237Z,0.00
2019-03-20T03:33:24.233Z,0.00
2019-03-20T03:34:24.233Z,0.00
2019-03-20T03:35:24.190Z,0.00
2019-03-20T03:36:24.191Z,0.00
2019-03-20T03:37:24.196Z,0.00
2019-03-20T03:38:24.170Z,0.00
2019-03-20T03:39:24.150Z,0.00
2019-03-20T03:40:24.133Z,0.00
2019-03-20T03:41:24.137Z,0.00
2019-03-20T03:42:24.169Z,0.00
2019-03-20T03:43:24.692Z,0.00
2019-03-20T03:44:24.118Z,0.00
2019-03-20T03:45:24.115Z,0.00
2019-03-20T03:46:24.082Z,0.00
2019-03-20T03:47:24.085Z,0.00
2019-03-20T03:48:24.107Z,0.00
2019-03-20T03:49:24.076Z,0.00
2019-03-20T03:50:24.048Z,0.00
2019-03-20T03:51:24.029Z,0.00
2019-03-20T03:52:24.023Z,0.00
2019-03-20T03:53:24.026Z,0.00
2019-03-20T03:54:24.034Z,0.00
2019-03-20T03:55:24.008Z,0.00
2019-03-20T03:56:23.974Z,0.00
2019-03-20T03:57:23.967Z,0.00
2019-03-20T03:58:23.948Z,0.00
2019-03-20T03:59:23.939Z,0.00
2019-03-20T04:00:23.970Z,0.00
2019-03-20T04:01:23.936Z,0.00
2019-03-20T04:02:23.917Z,0.00
2019-03-20T04:03:23.915Z,0.00
2019-03-20T04:04:23.894Z,0.00
2019-03-20T04:05:23.878Z,0.00
2019-03-20T04:06:34.813Z,0.00
2019-03-20T04:07:24.854Z,0.00
2019-03-20T04:08:23.872Z,0.00
2019-03-20T04:09:23.889Z,0.00
2019-03-20T04:10:23.828Z,0.00
2019-03-20T04:11:23.813Z,0.00
2019-03-20T04:12:23.832Z,0.00
2019-03-20T04:13:23.811Z,0.00
2019-03-20T04:14:23.782Z,0.00
2019-03-20T04:15:23.776Z,0.00
2019-03-20T04:16:23.776Z,0.00
2019-03-20T04:17:23.780Z,0.00
2019-03-20T04:18:23.791Z,0.00
2019-03-20T04:19:23.959Z,0.00
2019-03-20T04:20:23.723Z,0.00
2019-03-20T04:21:23.712Z,0.00
2019-03-20T04:22:23.699Z,0.00
2019-03-20T04:23:23.726Z,0.00
2019-03-20T04:24:23.715Z,0.00
2019-03-20T04:25:23.675Z,0.00
2019-03-20T04:26:23.657Z,0.00
2019-03-20T04:27:23.648Z,0.00
2019-03-20T04:28:23.660Z,0.00
2019-03-20T04:29:23.629Z,0.00
2019-03-20T04:30:23.672Z,0.00
2019-03-20T04:31:23.613Z,0.00
2019-03-20T04:32:23.595Z,0.00
2019-03-20T04:33:23.605Z,0.00
2019-03-20T04:34:23.579Z,0.00
2019-03-20T04:35:23.573Z,0.00
2019-03-20T04:36:23.588Z,0.00
2019-03-20T04:37:23.550Z,0.00
2019-03-20T04:38:23.545Z,0.00
2019-03-20T04:39:23.547Z,0.00
2019-03-20T04:40:23.532Z,0.00
2019-03-20T04:41:23.500Z,0.00
2019-03-20T04:42:23.518Z,0.00
2019-03-20T04:43:23.503Z,0.00
2019-03-20T04:44:23.470Z,0.00
2019-03-20T04:45:23.459Z,0.00
2019-03-20T04:46:23.449Z,0.00
2019-03-20T04:47:23.441Z,0.00
2019-03-20T04:48:23.451Z,0.00
2019-03-20T04:49:23.443Z,0.00
2019-03-20T04:50:23.412Z,0.00
2019-03-20T04:51:23.405Z,0.00
2019-03-20T04:52:23.391Z,0.00
2019-03-20T04:53:23.382Z,0.00
2019-03-20T04:54:23.391Z,0.00
2019-03-20T04:55:23.371Z,0.00
2019-03-20T04:56:23.343Z,0.00
2019-03-20T04:57:23.336Z,0.00
2019-03-20T04:58:23.326Z,0.00
2019-03-20T04:59:23.316Z,0.00
2019-03-20T05:00:23.347Z,0.00
2019-03-20T05:01:23.624Z,0.00
2019-03-20T05:02:23.286Z,0.00
2019-03-20T05:03:23.309Z,0.00
2019-03-20T05:04:23.279Z,0.00
2019-03-20T05:05:23.251Z,4.00
2019-03-20T05:06:23.241Z,0.00
2019-03-20T05:07:23.257Z,0.00
2019-03-20T05:08:23.224Z,4.00
2019-03-20T05:09:23.225Z,4.00
2019-03-20T05:10:23.207Z,4.00
2019-03-20T05:11:23.193Z,4.00
2019-03-20T05:12:23.184Z,8.00
2019-03-20T05:13:23.194Z,8.00
2019-03-20T05:14:23.156Z,12.00
2019-03-20T05:15:23.169Z,12.00
2019-03-20T05:16:23.140Z,12.00
2019-03-20T05:17:23.130Z,16.00
2019-03-20T05:18:23.122Z,20.00
2019-03-20T05:19:23.148Z,20.00
2019-03-20T05:20:23.096Z,24.00
2019-03-20T05:21:23.107Z,32.00
2019-03-20T05:22:23.073Z,36.00
2019-03-20T05:23:23.073Z,44.00
2019-03-20T05:24:23.055Z,48.00
2019-03-20T05:25:23.074Z,52.00
2019-03-20T05:26:23.029Z,64.00
2019-03-20T05:27:23.039Z,72.00
2019-03-20T05:28:23.016Z,80.00
2019-03-20T05:29:22.999Z,92.00
2019-03-20T05:30:22.989Z,100.00
2019-03-20T05:31:22.987Z,112.00
2019-03-20T05:32:22.994Z,124.00
2019-03-20T05:33:22.975Z,140.00
2019-03-20T05:34:22.950Z,152.00
2019-03-20T05:35:22.988Z,168.00
2019-03-20T05:36:22.933Z,180.00
2019-03-20T05:37:22.915Z,196.00
2019-03-20T05:38:22.918Z,216.00
2019-03-20T05:39:22.917Z,228.00
2019-03-20T05:40:22.911Z,248.00
2019-03-20T05:41:22.891Z,264.00
2019-03-20T05:42:22.875Z,280.00
2019-03-20T05:43:22.860Z,304.00
2019-03-20T05:44:23.071Z,320.00
2019-03-20T05:45:22.859Z,340.00
2019-03-20T05:46:23.158Z,360.00
2019-03-20T05:47:22.841Z,380.00
2019-03-20T05:48:22.812Z,400.00
2019-03-20T05:49:22.794Z,420.00
2019-03-20T05:50:22.784Z,444.00
2019-03-20T05:51:22.812Z,468.00
2019-03-20T05:52:22.875Z,492.00
2019-03-20T05:53:23.585Z,524.00
2019-03-20T05:54:22.762Z,544.00
2019-03-20T05:55:22.731Z,564.00
2019-03-20T05:56:22.717Z,580.00
2019-03-20T05:57:22.729Z,596.00
2019-03-20T05:58:22.697Z,616.00
2019-03-20T05:59:22.693Z,632.00
2019-03-20T06:00:22.712Z,652.00
2019-03-20T06:01:22.671Z,672.00
2019-03-20T06:02:22.681Z,704.00
2019-03-20T06:03:22.691Z,732.00
2019-03-20T06:04:22.639Z,764.00
2019-03-20T06:05:22.639Z,800.00
2019-03-20T06:06:22.660Z,832.00
2019-03-20T06:07:22.613Z,880.00
2019-03-20T06:08:22.629Z,924.00
2019-03-20T06:09:22.612Z,952.00
2019-03-20T06:10:22.579Z,960.00
2019-03-20T06:11:22.577Z,964.00
2019-03-20T06:12:22.634Z,968.00
2019-03-20T06:13:22.560Z,976.00
2019-03-20T06:14:22.565Z,992.00
2019-03-20T06:15:24.529Z,1016.00
2019-03-20T06:16:22.529Z,1032.00
2019-03-20T06:17:22.505Z,1060.00
2019-03-20T06:18:22.489Z,1128.00
2019-03-20T06:19:22.493Z,1224.00
2019-03-20T06:20:22.469Z,1372.00
2019-03-20T06:21:22.495Z,1572.00
2019-03-20T06:22:22.685Z,1768.00
2019-03-20T06:23:22.435Z,1784.00
2019-03-20T06:24:22.459Z,1884.00
2019-03-20T06:25:22.437Z,2020.00
2019-03-20T06:26:22.410Z,2080.00
2019-03-20T06:27:22.400Z,2140.00
2019-03-20T06:28:22.611Z,2224.00
2019-03-20T06:29:22.391Z,2148.00
2019-03-20T06:30:22.398Z,2192.00
2019-03-20T06:31:22.356Z,2148.00
2019-03-20T06:32:22.384Z,2180.00
2019-03-20T06:33:22.349Z,2368.00
2019-03-20T06:34:22.327Z,2428.00
2019-03-20T06:35:22.356Z,2412.00
2019-03-20T06:36:22.300Z,2424.00
2019-03-20T06:37:32.140Z,2404.00
2019-03-20T06:38:23.309Z,2476.00
2019-03-20T06:39:22.293Z,2548.00
2019-03-20T06:40:22.261Z,2520.00
2019-03-20T06:41:22.268Z,2356.00
2019-03-20T06:42:22.257Z,2256.00
2019-03-20T06:43:22.241Z,2160.00
2019-03-20T06:44:22.220Z,2108.00
2019-03-20T06:45:22.237Z,2248.00
2019-03-20T06:46:22.203Z,2304.00
2019-03-20T06:47:22.186Z,2580.00
2019-03-20T06:48:22.187Z,2612.00
2019-03-20T06:49:22.227Z,2672.00
2019-03-20T06:50:22.175Z,2584.00
2019-03-20T06:51:22.142Z,2560.00
2019-03-20T06:52:22.142Z,2428.00
2019-03-20T06:53:22.127Z,2492.00
2019-03-20T06:54:22.116Z,2772.00
2019-03-20T06:55:22.167Z,2888.00
2019-03-20T06:56:22.095Z,2956.00
2019-03-20T06:57:22.081Z,3112.00
2019-03-20T06:58:22.080Z,3064.00
2019-03-20T06:59:22.066Z,2960.00
2019-03-20T07:00:22.075Z,3016.00
2019-03-20T07:01:22.058Z,3136.00
2019-03-20T07:02:22.030Z,2964.00
2019-03-20T07:03:22.031Z,2984.00
2019-03-20T07:04:22.013Z,3288.00
2019-03-20T07:05:22.003Z,3356.00
2019-03-20T07:06:22.009Z,3252.00
2019-03-20T07:07:21.986Z,3048.00
2019-03-20T07:08:21.966Z,2960.00
2019-03-20T07:09:21.971Z,2572.00
2019-03-20T07:10:22.002Z,2572.00
2019-03-20T07:11:21.952Z,3100.00
2019-03-20T07:12:21.949Z,3540.00
2019-03-20T07:13:21.932Z,3616.00
2019-03-20T07:14:21.903Z,3572.00
2019-03-20T07:15:21.897Z,3484.00
2019-03-20T07:16:21.908Z,3412.00
2019-03-20T07:17:21.905Z,3556.00
2019-03-20T07:18:21.872Z,3572.00
2019-03-20T07:19:21.857Z,3384.00
2019-03-20T07:20:21.838Z,3612.00
2019-03-20T07:21:21.830Z,3672.00
2019-03-20T07:22:21.885Z,3548.00
2019-03-20T07:23:21.808Z,3516.00
2019-03-20T07:24:21.800Z,3676.00
2019-03-20T07:25:21.792Z,3712.00
2019-03-20T07:26:21.785Z,3752.00
2019-03-20T07:27:21.774Z,3844.00
2019-03-20T07:28:21.768Z,3820.00
2019-03-20T07:29:21.758Z,3768.00
2019-03-20T07:30:21.732Z,3508.00
2019-03-20T07:31:21.940Z,3636.00
2019-03-20T07:32:21.716Z,3688.00
2019-03-20T07:33:21.737Z,3600.00
2019-03-20T07:34:21.766Z,3896.00
2019-03-20T07:35:21.699Z,3820.00
2019-03-20T07:36:21.666Z,3968.00
2019-03-20T07:37:21.659Z,4072.00
2019-03-20T07:38:22.578Z,4136.00
2019-03-20T07:39:21.636Z,4356.00
2019-03-20T07:40:21.699Z,4488.00
2019-03-20T07:41:21.673Z,4556.00
2019-03-20T07:42:21.638Z,4584.00
2019-03-20T07:43:21.595Z,4676.00
2019-03-20T07:44:21.585Z,4376.00
2019-03-20T07:45:21.572Z,4368.00
2019-03-20T07:46:21.579Z,4652.00
2019-03-20T07:47:21.601Z,4644.00
2019-03-20T07:48:22.674Z,4712.00
2019-03-20T07:49:21.533Z,4836.00
2019-03-20T07:50:21.524Z,4744.00
2019-03-20T07:51:21.515Z,4856.00
2019-03-20T07:52:21.840Z,4996.00
2019-03-20T07:53:21.494Z,5032.00
2019-03-20T07:54:21.514Z,5076.00
2019-03-20T07:55:21.472Z,5132.00
2019-03-20T07:56:21.478Z,4992.00
2019-03-20T07:57:21.449Z,5256.00
2019-03-20T07:58:21.451Z,5432.00
2019-03-20T07:59:21.427Z,5392.00
2019-03-20T08:00:21.434Z,5472.00
2019-03-20T08:01:21.407Z,5608.00
2019-03-20T08:02:21.399Z,5668.00
2019-03-20T08:03:21.380Z,5592.00
2019-03-20T08:04:21.388Z,5156.00
2019-03-20T08:05:29.202Z,4936.00
2019-03-20T08:06:22.385Z,4948.00
2019-03-20T08:07:21.343Z,5036.00
2019-03-20T08:08:21.328Z,5232.00
2019-03-20T08:09:21.367Z,5536.00
2019-03-20T08:10:21.314Z,5416.00
2019-03-20T08:11:21.316Z,5524.00
2019-03-20T08:12:21.312Z,5616.00
2019-03-20T08:13:21.325Z,5476.00
2019-03-20T08:14:21.265Z,5724.00
2019-03-20T08:15:21.261Z,5768.00
2019-03-20T08:16:21.252Z,5780.00
2019-03-20T08:17:21.251Z,6008.00
2019-03-20T08:18:21.254Z,5976.00
2019-03-20T08:19:21.211Z,5428.00
2019-03-20T08:20:21.201Z,4924.00
2019-03-20T08:21:21.195Z,4828.00
2019-03-20T08:22:21.179Z,4920.00
2019-03-20T08:23:21.189Z,5092.00
2019-03-20T08:24:21.200Z,5328.00
2019-03-20T08:25:21.157Z,5440.00
2019-03-20T08:26:21.160Z,5528.00
2019-03-20T08:27:21.138Z,5656.00
2019-03-20T08:28:21.120Z,5792.00
2019-03-20T08:29:21.113Z,5856.00
2019-03-20T08:30:21.124Z,5788.00
2019-03-20T08:31:21.086Z,5696.00
2019-03-20T08:32:21.098Z,5752.00
2019-03-20T08:33:21.090Z,5888.00
2019-03-20T08:34:21.102Z,6080.00
2019-03-20T08:35:21.045Z,6200.00
2019-03-20T08:36:21.061Z,5720.00
2019-03-20T08:37:21.032Z,6188.00
2019-03-20T08:38:21.033Z,6308.00
2019-03-20T08:39:21.004Z,6120.00
2019-03-20T08:40:20.991Z,6416.00
2019-03-20T08:41:20.981Z,6672.00
2019-03-20T08:42:20.985Z,6764.00
2019-03-20T08:43:20.955Z,6900.00
2019-03-20T08:44:20.970Z,7052.00
2019-03-20T08:45:20.941Z,7292.00
2019-03-20T08:46:20.929Z,7352.00
2019-03-20T08:47:20.920Z,7520.00
2019-03-20T08:48:20.931Z,7632.00
2019-03-20T08:49:20.901Z,7288.00
2019-03-20T08:50:20.906Z,6796.00
2019-03-20T08:51:20.879Z,6576.00
2019-03-20T08:52:20.876Z,6692.00
2019-03-20T08:53:20.855Z,6760.00
2019-03-20T08:54:20.865Z,6724.00
2019-03-20T08:55:20.833Z,6808.00
2019-03-20T08:56:21.059Z,7116.00
2019-03-20T08:57:20.847Z,7256.00
2019-03-20T08:58:20.799Z,7280.00
2019-03-20T08:59:20.790Z,7124.00
2019-03-20T09:00:20.846Z,7144.00
2019-03-20T09:01:28.502Z,7276.00
2019-03-20T09:02:21.856Z,7292.00
2019-03-20T09:03:20.752Z,7276.00
2019-03-20T09:04:20.736Z,7180.00
2019-03-20T09:05:20.722Z,7156.00
2019-03-20T09:06:20.749Z,7228.00
2019-03-20T09:07:20.719Z,7196.00
2019-03-20T09:08:28.782Z,7368.00
2019-03-20T09:09:21.684Z,6392.00
2019-03-20T09:10:20.667Z,6980.00
2019-03-20T09:11:21.598Z,7204.00
2019-03-20T09:12:20.669Z,7364.00
2019-03-20T09:13:20.637Z,7336.00
2019-03-20T09:14:20.625Z,7140.00
2019-03-20T09:15:20.615Z,7480.00
2019-03-20T09:16:20.607Z,7776.00
2019-03-20T09:17:20.686Z,7964.00
2019-03-20T09:18:20.604Z,8056.00
2019-03-20T09:19:20.574Z,8192.00
2019-03-20T09:20:20.565Z,8516.00
2019-03-20T09:21:20.578Z,8596.00
2019-03-20T09:22:20.564Z,8220.00
2019-03-20T09:23:20.554Z,7804.00
2019-03-20T09:24:20.539Z,7804.00
2019-03-20T09:25:20.508Z,8088.00
2019-03-20T09:26:20.502Z,8328.00
2019-03-20T09:27:20.490Z,8448.00
2019-03-20T09:28:20.484Z,8460.00
2019-03-20T09:29:20.486Z,8424.00
2019-03-20T09:30:20.525Z,8208.00
2019-03-20T09:31:20.444Z,7836.00
2019-03-20T09:32:20.437Z,7780.00
2019-03-20T09:33:20.441Z,7684.00
2019-03-20T09:34:20.421Z,7632.00
2019-03-20T09:35:20.474Z,7612.00
2019-03-20T09:36:20.412Z,7604.00
2019-03-20T09:37:20.393Z,7612.00
2019-03-20T09:38:20.395Z,7880.00
2019-03-20T09:39:20.361Z,8268.00
2019-03-20T09:40:20.354Z,8340.00
2019-03-20T09:41:20.362Z,8336.00
2019-03-20T09:42:20.343Z,8704.00
2019-03-20T09:43:20.342Z,8848.00
2019-03-20T09:44:20.310Z,8980.00
2019-03-20T09:45:20.296Z,8936.00
2019-03-20T09:46:20.283Z,9032.00
2019-03-20T09:47:20.305Z,8956.00
2019-03-20T09:48:20.278Z,8744.00
2019-03-20T09:49:20.260Z,8276.00
2019-03-20T09:50:20.267Z,8316.00
2019-03-20T09:51:20.258Z,8620.00
2019-03-20T09:52:20.236Z,8692.00
2019-03-20T09:53:20.221Z,8756.00
2019-03-20T09:54:20.232Z,8824.00
2019-03-20T09:55:20.189Z,8816.00
2019-03-20T09:56:20.179Z,8696.00
2019-03-20T09:57:20.186Z,8280.00
2019-03-20T09:58:20.154Z,7720.00
2019-03-20T09:59:20.147Z,7548.00
2019-03-20T10:00:20.145Z,7532.00
2019-03-20T10:01:20.124Z,7544.00
2019-03-20T10:02:20.115Z,7648.00
2019-03-20T10:03:20.121Z,7796.00
2019-03-20T10:04:20.089Z,7956.00
2019-03-20T10:05:20.122Z,8032.00
2019-03-20T10:06:20.091Z,8028.00
2019-03-20T10:07:20.057Z,8176.00
2019-03-20T10:08:20.050Z,8260.00
2019-03-20T10:09:20.053Z,8304.00
2019-03-20T10:10:20.024Z,8224.00
2019-03-20T10:11:20.014Z,8216.00
2019-03-20T10:12:20.024Z,8064.00
2019-03-20T10:13:19.991Z,8084.00
2019-03-20T10:14:19.977Z,8000.00
2019-03-20T10:15:19.983Z,7900.00
2019-03-20T10:16:19.961Z,7844.00
2019-03-20T10:17:19.944Z,7672.00
2019-03-20T10:18:19.949Z,7576.00
2019-03-20T10:19:19.927Z,7360.00
2019-03-20T10:20:19.946Z,7204.00
2019-03-20T10:21:20.242Z,7088.00
2019-03-20T10:22:19.900Z,7112.00
2019-03-20T10:23:19.897Z,7252.00
2019-03-20T10:24:19.904Z,7620.00
2019-03-20T10:25:19.875Z,8036.00
2019-03-20T10:26:19.850Z,8480.00
2019-03-20T10:27:19.836Z,8824.00
2019-03-20T10:28:19.842Z,9204.00
2019-03-20T10:29:19.818Z,9300.00
2019-03-20T10:30:19.824Z,9060.00
2019-03-20T10:31:19.793Z,8832.00
2019-03-20T10:32:19.786Z,8780.00
2019-03-20T10:33:19.775Z,8948.00
2019-03-20T10:34:19.778Z,8940.00
2019-03-20T10:35:19.758Z,8908.00
2019-03-20T10:36:19.760Z,8916.00
2019-03-20T10:37:19.739Z,8952.00
2019-03-20T10:38:19.743Z,8852.00
2019-03-20T10:39:19.710Z,8856.00
2019-03-20T10:40:19.729Z,9100.00
2019-03-20T10:41:19.698Z,9356.00
2019-03-20T10:42:19.686Z,9724.00
2019-03-20T10:43:19.686Z,10064.00
2019-03-20T10:44:19.677Z,10212.00
2019-03-20T10:45:19.646Z,10308.00
2019-03-20T10:46:19.634Z,10284.00
2019-03-20T10:47:19.635Z,10296.00
2019-03-20T10:48:19.615Z,10304.00
2019-03-20T10:49:19.637Z,10320.00
2019-03-20T10:50:21.414Z,10332.00
2019-03-20T10:51:19.583Z,10328.00
2019-03-20T10:52:19.596Z,10284.00
2019-03-20T10:53:19.574Z,10060.00
2019-03-20T10:54:19.548Z,9780.00
2019-03-20T10:55:19.551Z,9620.00
2019-03-20T10:56:19.559Z,9532.00
2019-03-20T10:57:19.524Z,9532.00
2019-03-20T10:58:19.525Z,9564.00
2019-03-20T10:59:19.494Z,9532.00
2019-03-20T11:00:19.485Z,9480.00
2019-03-20T11:01:19.472Z,9392.00
2019-03-20T11:02:19.461Z,9272.00
2019-03-20T11:03:19.489Z,9080.00
2019-03-20T11:04:19.481Z,8960.00
2019-03-20T11:05:19.446Z,8932.00
2019-03-20T11:06:19.420Z,8868.00
2019-03-20T11:07:19.411Z,8820.00
2019-03-20T11:08:19.440Z,8748.00
2019-03-20T11:09:19.387Z,8612.00
2019-03-20T11:10:19.447Z,8436.00
2019-03-20T11:11:26.914Z,8388.00
2019-03-20T11:12:20.372Z,8236.00
2019-03-20T11:13:19.360Z,8176.00
2019-03-20T11:14:19.335Z,8164.00
2019-03-20T11:15:19.320Z,8252.00
2019-03-20T11:16:19.322Z,8364.00
2019-03-20T11:17:19.326Z,8424.00
2019-03-20T11:18:19.313Z,8400.00
2019-03-20T11:19:19.303Z,8064.00
2019-03-20T11:20:19.285Z,8240.00
2019-03-20T11:21:19.261Z,8332.00
2019-03-20T11:22:19.381Z,8492.00
2019-03-20T11:23:19.242Z,8736.00
2019-03-20T11:24:19.345Z,9220.00
2019-03-20T11:25:19.224Z,9420.00
2019-03-20T11:26:19.202Z,9684.00
2019-03-20T11:27:19.198Z,9480.00
2019-03-20T11:28:19.184Z,9256.00
2019-03-20T11:29:21.798Z,8972.00
2019-03-20T11:30:19.173Z,8908.00
2019-03-20T11:31:19.162Z,9284.00
2019-03-20T11:32:19.140Z,9800.00
2019-03-20T11:33:19.129Z,9932.00
2019-03-20T11:34:19.119Z,9716.00
2019-03-20T11:35:19.129Z,9864.00
2019-03-20T11:36:19.095Z,10196.00
2019-03-20T11:37:19.104Z,10416.00
2019-03-20T11:38:19.079Z,10516.00
2019-03-20T11:39:29.280Z,10348.00
2019-03-20T11:40:20.058Z,10040.00
2019-03-20T11:41:19.043Z,9220.00
2019-03-20T11:42:19.037Z,8548.00
2019-03-20T11:43:19.033Z,8852.00
2019-03-20T11:44:19.047Z,9392.00
2019-03-20T11:45:19.040Z,9724.00
2019-03-20T11:46:19.034Z,9904.00
2019-03-20T11:47:18.992Z,9804.00
2019-03-20T11:48:18.967Z,9544.00
2019-03-20T11:49:18.978Z,9084.00
2019-03-20T11:50:18.946Z,8580.00
2019-03-20T11:51:18.939Z,8256.00
2019-03-20T11:52:18.929Z,7908.00
2019-03-20T11:53:18.955Z,7700.00
2019-03-20T11:54:18.903Z,7612.00
2019-03-20T11:55:18.911Z,7628.00
2019-03-20T11:56:18.881Z,7748.00
2019-03-20T11:57:21.523Z,7888.00
2019-03-20T11:58:18.860Z,8384.00
2019-03-20T11:59:18.898Z,8964.00
2019-03-20T12:00:18.843Z,9372.00
2019-03-20T12:01:18.829Z,9436.00
2019-03-20T12:02:27.777Z,9384.00
2019-03-20T12:03:19.806Z,9356.00
2019-03-20T12:04:18.797Z,9348.00
2019-03-20T12:05:18.842Z,9528.00
2019-03-20T12:06:18.774Z,9932.00
2019-03-20T12:07:18.765Z,9916.00
2019-03-20T12:08:18.755Z,10268.00
2019-03-20T12:09:18.743Z,10408.00
2019-03-20T12:10:18.733Z,10264.00
2019-03-20T12:11:18.767Z,10336.00
2019-03-20T12:12:18.708Z,10120.00
2019-03-20T12:13:18.701Z,9944.00
2019-03-20T12:14:18.689Z,10040.00
2019-03-20T12:15:18.677Z,10080.00
2019-03-20T12:16:18.683Z,9836.00
2019-03-20T12:17:20.231Z,9888.00
2019-03-20T12:18:18.655Z,10304.00
2019-03-20T12:19:18.641Z,10592.00
2019-03-20T12:20:18.641Z,10456.00
2019-03-20T12:21:18.636Z,9968.00
2019-03-20T12:22:18.604Z,10112.00
2019-03-20T12:23:18.608Z,10352.00
2019-03-20T12:24:18.595Z,10780.00
2019-03-20T12:25:18.569Z,11056.00
2019-03-20T12:26:18.559Z,11220.00
2019-03-20T12:27:18.562Z,10892.00
2019-03-20T12:28:18.553Z,10688.00
2019-03-20T12:29:18.559Z,11604.00
2019-03-20T12:30:18.516Z,12052.00
2019-03-20T12:31:18.552Z,12308.00
2019-03-20T12:32:18.497Z,12140.00
2019-03-20T12:33:18.485Z,11632.00
2019-03-20T12:34:18.474Z,10840.00
2019-03-20T12:35:18.508Z,9904.00